createdAt,value
2018-12-08T00:00:11.618Z,73.73
2018-12-08T00:02:39.083Z,74.23
2018-12-08T00:05:06.587Z,74.31
2018-12-08T00:07:34.106Z,73.94
2018-12-08T00:10:01.488Z,72.62
2018-12-08T00:12:28.892Z,73.21
2018-12-08T00:14:56.400Z,73.24
2018-12-08T00:17:23.901Z,73.40
2018-12-08T00:19:51.353Z,72.51
2018-12-08T00:22:18.760Z,71.06
2018-12-08T00:24:46.158Z,70.73
2018-12-08T00:27:13.625Z,70.68
2018-12-08T00:29:41.018Z,70.48
2018-12-08T00:32:08.421Z,71.19
2018-12-08T00:34:35.814Z,70.80
2018-12-08T00:37:03.289Z,71.32
2018-12-08T00:39:30.690Z,70.97
2018-12-08T00:41:58.094Z,70.86
2018-12-08T00:44:25.485Z,70.53
2018-12-08T00:46:52.917Z,70.48
2018-12-08T00:49:20.313Z,70.77
2018-12-08T00:51:47.702Z,70.60
2018-12-08T00:54:15.100Z,71.13
2018-12-08T00:56:42.524Z,70.77
2018-12-08T00:59:09.929Z,71.02
2018-12-08T01:01:37.505Z,70.68
2018-12-08T01:04:04.936Z,70.64
2018-12-08T01:06:32.364Z,71.36
2018-12-08T01:08:59.769Z,72.29
2018-12-08T01:11:27.211Z,72.76
2018-12-08T01:13:54.717Z,73.16
2018-12-08T01:16:22.114Z,72.70
2018-12-08T01:18:49.498Z,72.51
2018-12-08T01:21:16.910Z,72.85
2018-12-08T01:23:44.417Z,73.44
2018-12-08T01:26:11.890Z,73.16
2018-12-08T01:28:39.332Z,73.65
2018-12-08T01:31:06.743Z,73.50
2018-12-08T01:33:34.139Z,73.10
2018-12-08T01:36:01.626Z,72.85
2018-12-08T01:38:29.009Z,73.15
2018-12-08T01:40:56.407Z,72.40
2018-12-08T01:43:23.803Z,72.34
2018-12-08T01:45:51.282Z,72.69
2018-12-08T01:48:18.728Z,72.63
2018-12-08T01:50:46.169Z,72.44
2018-12-08T01:53:13.564Z,72.47
2018-12-08T01:55:41.134Z,72.54
2018-12-08T01:58:08.522Z,72.37
2018-12-08T02:00:35.967Z,72.21
2018-12-08T02:03:03.450Z,71.66
2018-12-08T02:05:30.845Z,71.44
2018-12-08T02:07:58.285Z,71.56
2018-12-08T02:10:25.689Z,71.30
2018-12-08T02:12:53.080Z,70.58
2018-12-08T02:15:20.564Z,70.77
2018-12-08T02:17:47.961Z,70.75
2018-12-08T02:20:15.414Z,70.75
2018-12-08T02:22:42.852Z,70.56
2018-12-08T02:25:10.239Z,70.92
2018-12-08T02:27:37.625Z,70.89
2018-12-08T02:30:05.335Z,70.72
2018-12-08T02:32:32.845Z,71.17
2018-12-08T02:35:00.438Z,70.85
2018-12-08T02:37:27.850Z,70.44
2018-12-08T02:39:55.240Z,70.30
2018-12-08T02:42:22.650Z,70.38
2018-12-08T02:44:50.164Z,71.03
2018-12-08T02:47:17.565Z,70.93
2018-12-08T02:49:44.962Z,71.13
2018-12-08T02:52:12.420Z,70.48
2018-12-08T02:54:39.898Z,70.96
2018-12-08T02:57:07.423Z,70.75
2018-12-08T02:59:34.897Z,70.57
2018-12-08T03:02:02.334Z,70.28
2018-12-08T03:04:32.611Z,70.51
2018-12-08T03:07:00.242Z,70.21
2018-12-08T03:09:27.858Z,69.86
2018-12-08T03:11:55.236Z,69.60
2018-12-08T03:14:22.633Z,69.53
2018-12-08T03:16:50.060Z,69.63
2018-12-08T03:19:17.453Z,69.11
2018-12-08T03:21:44.916Z,68.97
2018-12-08T03:24:12.379Z,68.92
2018-12-08T03:26:39.848Z,68.61
2018-12-08T03:29:07.247Z,69.12
2018-12-08T03:31:34.758Z,69.01
2018-12-08T03:34:02.241Z,69.57
2018-12-08T03:36:29.721Z,68.75
2018-12-08T03:38:57.116Z,68.89
2018-12-08T03:41:24.609Z,69.19
2018-12-08T03:43:52.071Z,68.97
2018-12-08T03:46:19.631Z,69.05
2018-12-08T03:48:47.024Z,68.86
2018-12-08T03:51:14.433Z,69.49
2018-12-08T03:53:41.832Z,68.95
2018-12-08T03:56:09.224Z,68.92
2018-12-08T03:58:36.615Z,69.26
2018-12-08T04:01:04.093Z,68.71
2018-12-08T04:03:31.509Z,68.80
2018-12-08T04:05:59.009Z,68.65
2018-12-08T04:08:26.490Z,68.77
2018-12-08T04:10:53.948Z,68.51
2018-12-08T04:13:21.352Z,68.46
2018-12-08T04:15:48.755Z,68.39
2018-12-08T04:18:16.258Z,68.24
2018-12-08T04:20:43.657Z,68.65
2018-12-08T04:23:11.053Z,68.71
2018-12-08T04:25:38.453Z,68.69
2018-12-08T04:28:05.890Z,68.08
2018-12-08T04:30:33.294Z,68.35
2018-12-08T04:33:00.681Z,68.52
2018-12-08T04:35:28.060Z,68.64
2018-12-08T04:37:55.462Z,68.82
2018-12-08T04:40:22.857Z,69.94
2018-12-08T04:42:50.258Z,70.34
2018-12-08T04:45:17.721Z,70.13
2018-12-08T04:47:45.104Z,69.75
2018-12-08T04:50:12.589Z,69.65
2018-12-08T04:52:39.981Z,69.38
2018-12-08T04:55:07.484Z,69.00
2018-12-08T04:57:34.876Z,69.06
2018-12-08T05:00:02.313Z,69.71
2018-12-08T05:02:33.058Z,69.30
2018-12-08T05:05:00.454Z,69.72
2018-12-08T05:07:27.942Z,70.14
2018-12-08T05:09:55.325Z,69.99
2018-12-08T05:12:22.717Z,70.05
2018-12-08T05:14:50.189Z,69.50
2018-12-08T05:17:17.572Z,69.75
2018-12-08T05:19:44.957Z,69.28
2018-12-08T05:22:12.336Z,69.24
2018-12-08T05:24:39.738Z,69.41
2018-12-08T05:27:07.128Z,69.18
2018-12-08T05:29:34.590Z,69.25
2018-12-08T05:32:02.095Z,68.97
2018-12-08T05:34:29.489Z,68.73
2018-12-08T05:36:56.878Z,68.89
2018-12-08T05:39:24.264Z,68.67
2018-12-08T05:41:51.664Z,69.47
2018-12-08T05:44:19.045Z,69.24
2018-12-08T05:46:46.469Z,69.25
2018-12-08T05:49:13.861Z,69.25
2018-12-08T05:51:41.254Z,69.18
2018-12-08T05:54:08.641Z,69.39
2018-12-08T05:56:36.033Z,69.00
2018-12-08T05:59:03.478Z,69.25
2018-12-08T06:01:30.881Z,69.04
2018-12-08T06:03:58.469Z,69.32
2018-12-08T06:06:25.917Z,69.26
2018-12-08T06:08:53.299Z,69.27
2018-12-08T06:11:20.705Z,69.47
2018-12-08T06:13:48.084Z,69.61
2018-12-08T06:16:15.477Z,69.21
2018-12-08T06:18:42.861Z,68.82
2018-12-08T06:21:10.264Z,68.78
2018-12-08T06:23:37.649Z,68.61
2018-12-08T06:26:06.916Z,68.77
2018-12-08T06:28:34.353Z,68.47
2018-12-08T06:31:01.761Z,68.60
2018-12-08T06:33:29.232Z,68.28
2018-12-08T06:35:56.609Z,68.32
2018-12-08T06:38:25.326Z,68.06
2018-12-08T06:40:53.161Z,68.26
2018-12-08T06:43:20.565Z,68.00
2018-12-08T06:45:48.030Z,67.93
2018-12-08T06:48:15.415Z,68.22
2018-12-08T06:50:42.800Z,67.73
2018-12-08T06:53:10.203Z,67.84
2018-12-08T06:55:37.925Z,67.96
2018-12-08T06:58:05.345Z,67.50
2018-12-08T07:00:32.743Z,67.82
2018-12-08T07:03:00.131Z,67.89
2018-12-08T07:05:27.517Z,68.16
2018-12-08T07:07:54.931Z,67.84
2018-12-08T07:10:22.313Z,67.84
2018-12-08T07:12:49.702Z,67.91
2018-12-08T07:15:17.091Z,67.98
2018-12-08T07:17:45.217Z,68.35
2018-12-08T07:20:12.618Z,68.09
2018-12-08T07:22:40.167Z,68.35
2018-12-08T07:25:07.738Z,68.46
2018-12-08T07:27:35.174Z,68.39
2018-12-08T07:30:02.610Z,68.34
2018-12-08T07:32:30.083Z,68.96
2018-12-08T07:34:57.549Z,69.43
2018-12-08T07:37:24.998Z,70.69
2018-12-08T07:39:52.388Z,70.52
2018-12-08T07:42:19.857Z,70.32
2018-12-08T07:44:47.365Z,70.30
2018-12-08T07:47:14.802Z,70.48
2018-12-08T07:49:42.309Z,70.63
2018-12-08T07:52:09.722Z,72.10
2018-12-08T07:54:37.090Z,73.10
2018-12-08T07:57:04.793Z,73.72
2018-12-08T07:59:32.181Z,74.04
2018-12-08T08:01:59.642Z,73.72
2018-12-08T08:04:27.037Z,74.08
2018-12-08T08:06:54.474Z,74.15
2018-12-08T08:09:21.869Z,73.74
2018-12-08T08:11:49.250Z,74.40
2018-12-08T08:14:16.793Z,74.17
2018-12-08T08:16:44.177Z,74.17
2018-12-08T08:19:11.558Z,74.14
2018-12-08T08:21:38.953Z,74.01
2018-12-08T08:24:06.338Z,73.82
2018-12-08T08:26:33.861Z,73.50
2018-12-08T08:29:01.231Z,73.58
2018-12-08T08:31:28.672Z,73.32
2018-12-08T08:33:56.055Z,72.48
2018-12-08T08:36:23.529Z,72.28
2018-12-08T08:38:50.921Z,72.54
2018-12-08T08:41:18.397Z,72.60
2018-12-08T08:43:45.790Z,72.13
2018-12-08T08:46:13.173Z,72.49
2018-12-08T08:48:40.564Z,72.36
2018-12-08T08:51:07.992Z,72.63
2018-12-08T08:53:35.380Z,72.34
2018-12-08T08:56:02.773Z,72.22
2018-12-08T08:58:30.386Z,72.08
2018-12-08T09:00:57.778Z,71.80
2018-12-08T09:03:25.170Z,72.04
2018-12-08T09:05:52.738Z,72.81
2018-12-08T09:08:20.147Z,72.63
2018-12-08T09:10:47.537Z,72.32
2018-12-08T09:13:14.969Z,72.11
2018-12-08T09:15:42.361Z,71.61
2018-12-08T09:18:09.744Z,71.55
2018-12-08T09:20:37.144Z,71.31
2018-12-08T09:23:04.528Z,71.17
2018-12-08T09:25:31.916Z,71.08
2018-12-08T09:27:59.392Z,71.16
2018-12-08T09:30:26.868Z,70.29
2018-12-08T09:32:54.334Z,70.29
2018-12-08T09:35:21.742Z,69.91
2018-12-08T09:37:49.129Z,69.85
2018-12-08T09:40:16.504Z,69.94
2018-12-08T09:42:44.007Z,69.94
2018-12-08T09:45:11.399Z,70.11
2018-12-08T09:47:38.839Z,70.28
2018-12-08T09:50:06.413Z,71.36
2018-12-08T09:52:33.845Z,71.28
2018-12-08T09:55:01.233Z,71.57
2018-12-08T09:57:28.620Z,71.54
2018-12-08T09:59:56.068Z,72.06
2018-12-08T10:02:23.528Z,72.84
2018-12-08T10:04:51.016Z,72.94
2018-12-08T10:07:18.502Z,72.99
2018-12-08T10:09:45.906Z,73.24
2018-12-08T10:12:13.450Z,73.46
2018-12-08T10:14:40.861Z,73.41
2018-12-08T10:17:08.293Z,73.69
2018-12-08T10:19:35.739Z,73.12
2018-12-08T10:22:03.155Z,72.46
2018-12-08T10:24:30.603Z,73.14
2018-12-08T10:26:58.051Z,73.35
2018-12-08T10:29:25.621Z,72.75
2018-12-08T10:31:53.056Z,72.88
2018-12-08T10:34:21.471Z,72.52
2018-12-08T10:36:48.917Z,72.87
2018-12-08T10:39:16.361Z,72.52
2018-12-08T10:44:17.481Z,72.87
2018-12-08T10:46:44.976Z,72.71
2018-12-08T10:49:12.582Z,72.54
2018-12-08T10:51:39.971Z,72.67
2018-12-08T10:54:07.365Z,73.32
2018-12-08T10:56:34.805Z,73.17
2018-12-08T10:59:02.336Z,72.47
2018-12-08T11:01:31.966Z,72.11
2018-12-08T11:03:59.378Z,72.03
2018-12-08T11:06:26.838Z,71.30
2018-12-08T11:08:54.237Z,71.21
2018-12-08T11:11:21.626Z,70.60
2018-12-08T11:13:49.022Z,70.08
2018-12-08T11:16:16.423Z,69.63
2018-12-08T11:18:43.889Z,68.99
2018-12-08T11:21:11.347Z,68.79
2018-12-08T11:23:38.863Z,68.61
2018-12-08T11:26:06.345Z,69.30
2018-12-08T11:28:33.728Z,69.08
2018-12-08T11:31:01.132Z,68.24
2018-12-08T11:33:28.517Z,68.44
2018-12-08T11:35:55.953Z,67.91
2018-12-08T11:38:23.387Z,67.76
2018-12-08T11:40:50.833Z,67.68
2018-12-08T11:43:18.217Z,67.05
2018-12-08T11:45:45.600Z,66.63
2018-12-08T11:48:13.122Z,66.34
2018-12-08T11:50:40.515Z,66.26
2018-12-08T11:53:07.994Z,65.89
2018-12-08T11:55:35.466Z,65.34
2018-12-08T11:58:02.862Z,64.74
2018-12-08T12:00:30.291Z,65.00
2018-12-08T12:02:57.774Z,65.10
2018-12-08T12:05:25.162Z,65.08
2018-12-08T12:07:52.545Z,65.16
2018-12-08T12:10:20.029Z,65.22
2018-12-08T12:12:47.497Z,66.12
2018-12-08T12:15:14.887Z,65.98
2018-12-08T12:17:42.406Z,66.32
2018-12-08T12:20:09.803Z,67.25
2018-12-08T12:22:37.265Z,66.95
2018-12-08T12:25:05.804Z,66.76
2018-12-08T12:27:33.274Z,66.26
2018-12-08T12:30:00.680Z,67.05
2018-12-08T12:32:28.170Z,66.60
2018-12-08T12:34:55.591Z,67.01
2018-12-08T12:37:23.021Z,65.96
2018-12-08T12:39:50.446Z,66.04
2018-12-08T12:42:17.808Z,65.74
2018-12-08T12:44:45.220Z,65.88
2018-12-08T12:47:12.606Z,66.25
2018-12-08T12:49:40.065Z,66.32
2018-12-08T12:52:07.552Z,66.40
2018-12-08T12:54:34.949Z,67.06
2018-12-08T12:57:02.361Z,67.37
2018-12-08T12:59:29.756Z,67.49
2018-12-08T13:01:57.160Z,67.92
2018-12-08T13:04:24.574Z,69.48
2018-12-08T13:06:51.981Z,70.63
2018-12-08T13:09:19.513Z,71.65
2018-12-08T13:11:47.171Z,72.81
2018-12-08T13:14:14.581Z,73.72
2018-12-08T13:16:42.038Z,73.96
2018-12-08T13:19:09.580Z,73.85
2018-12-08T13:21:37.006Z,74.60
2018-12-08T13:24:04.597Z,73.42
2018-12-08T13:26:32.033Z,73.93
2018-12-08T13:28:59.528Z,72.87
2018-12-08T13:31:26.942Z,73.25
2018-12-08T13:33:55.260Z,72.88
2018-12-08T13:36:22.734Z,72.84
2018-12-08T13:38:50.124Z,73.05
2018-12-08T13:41:17.522Z,72.42
2018-12-08T13:43:48.828Z,72.70
2018-12-08T13:46:16.210Z,73.03
2018-12-08T13:48:43.597Z,73.39
2018-12-08T13:51:11.305Z,73.29
2018-12-08T13:53:38.743Z,73.16
2018-12-08T13:56:06.128Z,72.86
2018-12-08T13:58:33.530Z,73.03
2018-12-08T14:01:00.925Z,72.48
2018-12-08T14:03:28.327Z,70.30
2018-12-08T14:05:55.721Z,70.79
2018-12-08T14:08:23.202Z,70.28
2018-12-08T14:10:50.598Z,70.19
2018-12-08T14:13:18.118Z,69.13
2018-12-08T14:15:45.701Z,69.08
2018-12-08T14:18:13.128Z,69.56
2018-12-08T14:20:40.694Z,68.53
2018-12-08T14:23:08.090Z,67.80
2018-12-08T14:25:35.553Z,67.27
2018-12-08T14:28:03.230Z,67.60
2018-12-08T14:30:30.671Z,67.31
2018-12-08T14:32:58.065Z,67.19
2018-12-08T14:35:25.540Z,66.73
2018-12-08T14:37:53.005Z,66.12
2018-12-08T14:40:20.436Z,66.46
2018-12-08T14:42:47.853Z,66.19
2018-12-08T14:45:15.338Z,66.25
2018-12-08T14:47:42.741Z,65.15
2018-12-08T14:50:10.301Z,65.52
2018-12-08T14:52:37.809Z,65.44
2018-12-08T14:55:05.646Z,65.00
2018-12-08T14:57:33.077Z,65.10
2018-12-08T15:00:00.551Z,65.19
2018-12-08T15:02:28.065Z,65.26
2018-12-08T15:04:55.448Z,65.48
2018-12-08T15:07:22.837Z,64.83
2018-12-08T15:09:50.216Z,65.62
2018-12-08T15:12:17.616Z,65.70
2018-12-08T15:14:44.996Z,66.33
2018-12-08T15:17:12.389Z,65.65
2018-12-08T15:19:39.903Z,65.76
2018-12-08T15:22:07.328Z,65.72
2018-12-08T15:24:34.727Z,66.12
2018-12-08T15:27:02.173Z,65.62
2018-12-08T15:29:29.634Z,65.43
2018-12-08T15:31:57.075Z,66.41
2018-12-08T15:34:24.497Z,65.58
2018-12-08T15:36:51.880Z,66.17
2018-12-08T15:39:19.353Z,65.20
2018-12-08T15:41:46.742Z,65.77
2018-12-08T15:44:15.634Z,65.43
2018-12-08T15:46:43.038Z,65.10
2018-12-08T15:49:10.434Z,65.03
2018-12-08T15:51:37.901Z,65.18
2018-12-08T15:54:05.361Z,65.14
2018-12-08T15:56:32.838Z,65.14
2018-12-08T15:59:00.345Z,65.27
2018-12-08T16:01:27.722Z,65.03
2018-12-08T16:03:55.237Z,64.24
2018-12-08T16:06:22.679Z,64.55
2018-12-08T16:08:50.109Z,64.71
2018-12-08T16:11:17.506Z,64.71
2018-12-08T16:13:45.128Z,64.47
2018-12-08T16:16:12.557Z,64.66
2018-12-08T16:18:39.955Z,64.19
2018-12-08T16:21:07.514Z,64.30
2018-12-08T16:23:34.905Z,63.91
2018-12-08T16:26:02.381Z,64.07
2018-12-08T16:28:29.938Z,63.38
2018-12-08T16:30:57.497Z,63.73
2018-12-08T16:33:24.958Z,63.75
2018-12-08T16:35:52.469Z,63.55
2018-12-08T16:38:19.892Z,63.64
2018-12-08T16:40:47.269Z,63.84
2018-12-08T16:43:14.705Z,63.76
2018-12-08T16:45:42.147Z,63.95
2018-12-08T16:48:09.618Z,63.67
2018-12-08T16:50:37.066Z,63.76
2018-12-08T16:53:04.578Z,63.88
2018-12-08T16:55:32.036Z,63.93
2018-12-08T16:57:59.646Z,64.50
2018-12-08T17:00:27.238Z,65.17
2018-12-08T17:02:54.751Z,65.77
2018-12-08T17:05:22.184Z,66.19
2018-12-08T17:07:49.661Z,66.45
2018-12-08T17:10:17.093Z,66.70
2018-12-08T17:12:44.579Z,66.74
2018-12-08T17:15:12.041Z,66.79
2018-12-08T17:17:39.485Z,67.18
2018-12-08T17:20:08.572Z,69.09
2018-12-08T17:22:35.958Z,70.17
2018-12-08T17:25:03.668Z,70.96
2018-12-08T17:27:31.110Z,71.23
2018-12-08T17:29:58.480Z,71.58
2018-12-08T17:32:25.871Z,71.68
2018-12-08T17:34:53.570Z,71.92
2018-12-08T17:37:21.729Z,71.66
2018-12-08T17:39:49.145Z,71.41
2018-12-08T17:42:16.580Z,71.55
2018-12-08T17:44:44.034Z,71.61
2018-12-08T17:47:11.490Z,71.54
2018-12-08T17:49:38.939Z,71.85
2018-12-08T17:52:06.408Z,71.52
2018-12-08T17:54:33.792Z,71.89
2018-12-08T17:57:01.226Z,71.64
2018-12-08T17:59:28.637Z,71.46
2018-12-08T18:01:56.024Z,71.23
2018-12-08T18:04:23.480Z,71.33
2018-12-08T18:06:50.979Z,71.61
2018-12-08T18:09:18.394Z,71.51
2018-12-08T18:11:45.789Z,71.55
2018-12-08T18:14:13.412Z,71.21
2018-12-08T18:16:40.820Z,70.98
2018-12-08T18:19:08.280Z,70.92
2018-12-08T18:21:35.744Z,70.76
2018-12-08T18:24:03.402Z,70.86
2018-12-08T18:26:30.812Z,70.71
2018-12-08T18:28:58.201Z,70.77
2018-12-08T18:31:25.625Z,70.44
2018-12-08T18:33:53.107Z,71.08
2018-12-08T18:36:20.509Z,72.17
2018-12-08T18:38:47.903Z,72.92
2018-12-08T18:41:15.336Z,73.58
2018-12-08T18:43:42.820Z,73.94
2018-12-08T18:46:10.213Z,74.79
2018-12-08T18:48:37.612Z,75.67
2018-12-08T18:51:05.129Z,76.03
2018-12-08T18:53:32.573Z,76.54
2018-12-08T18:56:00.005Z,76.78
2018-12-08T18:58:27.401Z,77.19
2018-12-08T19:00:54.853Z,77.44
2018-12-08T19:03:22.273Z,77.52
2018-12-08T19:05:49.664Z,78.07
2018-12-08T19:08:17.057Z,77.95
2018-12-08T19:10:44.457Z,78.42
2018-12-08T19:13:11.849Z,79.22
2018-12-08T19:15:39.240Z,79.46
2018-12-08T19:18:06.858Z,79.71
2018-12-08T19:20:34.278Z,79.93
2018-12-08T19:23:01.745Z,79.74
2018-12-08T19:25:29.128Z,80.03
2018-12-08T19:27:56.626Z,80.34
2018-12-08T19:30:25.104Z,80.43
2018-12-08T19:32:52.530Z,80.67
2018-12-08T19:35:20.016Z,80.76
2018-12-08T19:37:47.445Z,80.76
2018-12-08T19:40:14.879Z,81.08
2018-12-08T19:42:42.261Z,81.15
2018-12-08T19:45:09.824Z,81.37
2018-12-08T19:47:37.220Z,81.45
2018-12-08T19:50:05.936Z,81.59
2018-12-08T19:52:33.356Z,81.49
2018-12-08T19:55:00.751Z,81.39
2018-12-08T19:57:28.202Z,81.51
2018-12-08T19:59:55.587Z,81.18
2018-12-08T20:02:22.973Z,81.12
2018-12-08T20:04:50.373Z,81.05
2018-12-08T20:07:17.781Z,81.30
2018-12-08T20:09:45.168Z,81.37
2018-12-08T20:12:12.632Z,81.68
2018-12-08T20:14:40.038Z,81.60
2018-12-08T20:17:07.476Z,81.58
2018-12-08T20:19:34.940Z,81.61
2018-12-08T20:22:02.380Z,81.33
2018-12-08T20:24:29.777Z,81.84
2018-12-08T20:26:57.240Z,81.83
2018-12-08T20:29:24.649Z,81.85
2018-12-08T20:31:52.112Z,82.15
2018-12-08T20:34:19.506Z,82.21
2018-12-08T20:36:46.894Z,82.37
2018-12-08T20:39:14.302Z,82.55
2018-12-08T20:41:41.814Z,82.34
2018-12-08T20:44:09.208Z,82.58
2018-12-08T20:46:38.015Z,82.34
2018-12-08T20:49:05.641Z,82.32
2018-12-08T20:51:33.093Z,82.64
2018-12-08T20:54:00.481Z,82.69
2018-12-08T20:56:27.882Z,82.31
2018-12-08T20:58:55.279Z,82.52
2018-12-08T21:01:22.678Z,82.81
2018-12-08T21:03:50.080Z,82.79
2018-12-08T21:06:17.524Z,82.55
2018-12-08T21:08:45.021Z,82.28
2018-12-08T21:11:12.438Z,82.27
2018-12-08T21:13:39.844Z,81.87
2018-12-08T21:16:07.290Z,81.17
2018-12-08T21:18:34.681Z,80.91
2018-12-08T21:21:02.051Z,80.33
2018-12-08T21:23:29.454Z,79.90
2018-12-08T21:25:56.834Z,79.49
2018-12-08T21:28:24.233Z,79.18
2018-12-08T21:30:51.616Z,78.92
2018-12-08T21:33:19.010Z,78.55
2018-12-08T21:35:46.397Z,78.19
2018-12-08T21:38:14.711Z,77.96
2018-12-08T21:40:42.145Z,77.64
2018-12-08T21:43:09.585Z,77.49
2018-12-08T21:45:37.174Z,75.95
2018-12-08T21:48:04.569Z,74.60
2018-12-08T21:50:32.036Z,74.53
2018-12-08T21:52:59.462Z,74.67
2018-12-08T21:55:26.850Z,74.86
2018-12-08T21:57:54.328Z,75.32
2018-12-08T22:00:21.774Z,75.45
2018-12-08T22:02:49.164Z,75.36
2018-12-08T22:05:16.568Z,75.19
2018-12-08T22:07:44.053Z,75.13
2018-12-08T22:10:11.492Z,74.39
2018-12-08T22:12:38.987Z,74.24
2018-12-08T22:15:08.696Z,74.46
2018-12-08T22:17:36.089Z,73.91
2018-12-08T22:20:03.962Z,74.05
2018-12-08T22:22:31.495Z,73.97
2018-12-08T22:24:58.893Z,74.01
2018-12-08T22:27:26.285Z,72.73
2018-12-08T22:29:53.845Z,72.63
2018-12-08T22:32:21.241Z,71.82
2018-12-08T22:34:48.714Z,71.78
2018-12-08T22:37:16.110Z,72.01
2018-12-08T22:39:43.493Z,71.67
2018-12-08T22:42:10.893Z,70.72
2018-12-08T22:44:38.281Z,70.73
2018-12-08T22:47:05.757Z,70.51
2018-12-08T22:49:33.145Z,69.97
2018-12-08T22:52:00.536Z,69.97
2018-12-08T22:54:27.941Z,70.23
2018-12-08T22:56:55.329Z,70.09
2018-12-08T22:59:22.806Z,69.63
2018-12-08T23:01:50.389Z,70.05
2018-12-08T23:04:17.777Z,70.06
2018-12-08T23:06:56.896Z,69.51
2018-12-08T23:09:24.377Z,69.56
2018-12-08T23:11:51.802Z,69.75
2018-12-08T23:14:19.201Z,70.01
2018-12-08T23:16:46.638Z,70.17
2018-12-08T23:19:14.076Z,69.71
2018-12-08T23:21:41.463Z,69.97
2018-12-08T23:24:08.900Z,69.66
2018-12-08T23:26:36.290Z,69.85
2018-12-08T23:29:03.841Z,69.33
2018-12-08T23:31:31.273Z,69.73
2018-12-08T23:33:58.705Z,69.86
2018-12-08T23:36:26.097Z,70.28
2018-12-08T23:38:53.493Z,72.34
2018-12-08T23:41:20.877Z,73.70
2018-12-08T23:43:48.345Z,74.83
2018-12-08T23:46:15.733Z,75.66
2018-12-08T23:48:43.174Z,76.92
2018-12-08T23:51:10.698Z,77.51
2018-12-08T23:53:38.076Z,78.38
2018-12-08T23:56:05.475Z,77.63
2018-12-08T23:58:32.877Z,78.85
